sensor_id;sensor_type;location;lat;lon;timestamp;pressure;altitude;pressure_sealevel;temperature;humidity
23361;BME280;11852;50.082;18.554;2022-11-13T00:00:40;100149.5;;;5.31;85.6
23361;BME280;11852;50.082;18.554;2022-11-13T00:01:44;100148.0;;;5.36;85.53
23361;BME280;11852;50.082;18.554;2022-11-13T00:02:49;100148.5;;;5.38;85.57
23361;BME280;11852;50.082;18.554;2022-11-13T00:03:53;100145.0;;;5.33;85.49
23361;BME280;11852;50.082;18.554;2022-11-13T00:04:58;100144.0;;;5.32;85.56
23361;BME280;11852;50.082;18.554;2022-11-13T00:06:02;100144.5;;;5.31;85.51
23361;BME280;11852;50.082;18.554;2022-11-13T00:07:07;100142.5;;;5.2;85.88
23361;BME280;11852;50.082;18.554;2022-11-13T00:08:11;100140.0;;;5.14;85.77
23361;BME280;11852;50.082;18.554;2022-11-13T00:09:16;100139.5;;;5.16;85.67
23361;BME280;11852;50.082;18.554;2022-11-13T00:10:20;100139.5;;;5.17;85.78
23361;BME280;11852;50.082;18.554;2022-11-13T00:11:25;100140.5;;;5.18;85.82
23361;BME280;11852;50.082;18.554;2022-11-13T00:12:29;100142.5;;;5.2;85.72
23361;BME280;11852;50.082;18.554;2022-11-13T00:13:34;100142.51;;;5.22;85.74
23361;BME280;11852;50.082;18.554;2022-11-13T00:14:38;100140.5;;;5.16;85.99
23361;BME280;11852;50.082;18.554;2022-11-13T00:15:42;100140.5;;;5.25;85.67
23361;BME280;11852;50.082;18.554;2022-11-13T00:16:46;100139.5;;;5.24;85.7
23361;BME280;11852;50.082;18.554;2022-11-13T00:17:50;100138.5;;;5.3;85.58
23361;BME280;11852;50.082;18.554;2022-11-13T00:18:55;100141.0;;;5.3;85.63
23361;BME280;11852;50.082;18.554;2022-11-13T00:19:59;100139.0;;;5.22;85.69
23361;BME280;11852;50.082;18.554;2022-11-13T00:22:14;100141.0;;;5.24;85.44
23361;BME280;11852;50.082;18.554;2022-11-13T00:23:18;100138.5;;;5.24;85.57
23361;BME280;11852;50.082;18.554;2022-11-13T00:24:23;100138.5;;;5.18;85.69
23361;BME280;11852;50.082;18.554;2022-11-13T00:25:27;100142.5;;;5.13;85.87
23361;BME280;11852;50.082;18.554;2022-11-13T00:26:32;100141.5;;;5.13;85.78
23361;BME280;11852;50.082;18.554;2022-11-13T00:27:36;100140.0;;;5.18;85.74
23361;BME280;11852;50.082;18.554;2022-11-13T00:28:40;100143.0;;;5.24;85.69
23361;BME280;11852;50.082;18.554;2022-11-13T00:29:45;100143.0;;;5.15;85.97
23361;BME280;11852;50.082;18.554;2022-11-13T00:30:49;100146.5;;;5.14;85.84
23361;BME280;11852;50.082;18.554;2022-11-13T00:31:54;100149.5;;;5.1;86.06
23361;BME280;11852;50.082;18.554;2022-11-13T00:32:58;100149.5;;;5.1;85.96
23361;BME280;11852;50.082;18.554;2022-11-13T00:34:02;100150.5;;;5.13;85.96
23361;BME280;11852;50.082;18.554;2022-11-13T00:35:07;100147.5;;;5.13;85.99
23361;BME280;11852;50.082;18.554;2022-11-13T00:37:21;100148.0;;;5.23;85.76
23361;BME280;11852;50.082;18.554;2022-11-13T00:38:26;100149.5;;;5.14;86.08
23361;BME280;11852;50.082;18.554;2022-11-13T00:39:30;100149.5;;;5.16;85.93
23361;BME280;11852;50.082;18.554;2022-11-13T00:40:35;100147.5;;;5.2;85.9
23361;BME280;11852;50.082;18.554;2022-11-13T00:41:40;100145.5;;;5.28;85.82
23361;BME280;11852;50.082;18.554;2022-11-13T00:42:44;100143.0;;;5.32;85.83
23361;BME280;11852;50.082;18.554;2022-11-13T00:43:49;100142.5;;;5.31;85.82
23361;BME280;11852;50.082;18.554;2022-11-13T00:44:53;100143.5;;;5.39;85.6
23361;BME280;11852;50.082;18.554;2022-11-13T00:45:58;100140.0;;;5.4;85.63
23361;BME280;11852;50.082;18.554;2022-11-13T00:47:02;100137.5;;;5.41;85.57
23361;BME280;11852;50.082;18.554;2022-11-13T00:48:07;100134.0;;;5.45;85.51
23361;BME280;11852;50.082;18.554;2022-11-13T00:49:11;100132.0;;;5.43;85.65
23361;BME280;11852;50.082;18.554;2022-11-13T00:50:16;100132.99;;;5.45;85.51
23361;BME280;11852;50.082;18.554;2022-11-13T00:51:20;100133.0;;;5.39;85.62
23361;BME280;11852;50.082;18.554;2022-11-13T00:52:25;100132.0;;;5.35;85.57
23361;BME280;11852;50.082;18.554;2022-11-13T00:53:30;100135.5;;;5.35;85.58
23361;BME280;11852;50.082;18.554;2022-11-13T00:54:34;100135.0;;;5.38;85.5
23361;BME280;11852;50.082;18.554;2022-11-13T00:55:39;100132.5;;;5.38;85.54
23361;BME280;11852;50.082;18.554;2022-11-13T00:56:43;100132.0;;;5.43;85.51
23361;BME280;11852;50.082;18.554;2022-11-13T00:57:48;100127.0;;;5.43;85.4
23361;BME280;11852;50.082;18.554;2022-11-13T00:58:52;100121.5;;;5.34;85.51
23361;BME280;11852;50.082;18.554;2022-11-13T00:59:57;100121.5;;;5.34;85.47
23361;BME280;11852;50.082;18.554;2022-11-13T01:01:05;100122.0;;;5.36;85.37
23361;BME280;11852;50.082;18.554;2022-11-13T01:02:09;100121.0;;;5.32;85.49
23361;BME280;11852;50.082;18.554;2022-11-13T01:03:14;100122.0;;;5.34;85.47
23361;BME280;11852;50.082;18.554;2022-11-13T01:04:18;100120.0;;;5.36;85.44
23361;BME280;11852;50.082;18.554;2022-11-13T01:05:23;100123.5;;;5.35;85.59
23361;BME280;11852;50.082;18.554;2022-11-13T01:06:27;100121.5;;;5.29;85.6
23361;BME280;11852;50.082;18.554;2022-11-13T01:07:33;100122.5;;;5.28;85.67
23361;BME280;11852;50.082;18.554;2022-11-13T01:08:37;100123.0;;;5.3;85.52
23361;BME280;11852;50.082;18.554;2022-11-13T01:09:41;100122.0;;;5.34;85.6
23361;BME280;11852;50.082;18.554;2022-11-13T01:10:47;100122.5;;;5.39;85.51
23361;BME280;11852;50.082;18.554;2022-11-13T01:11:50;100118.5;;;5.38;85.54
23361;BME280;11852;50.082;18.554;2022-11-13T01:12:55;100119.0;;;5.43;85.49
23361;BME280;11852;50.082;18.554;2022-11-13T01:13:59;100120.5;;;5.45;85.57
23361;BME280;11852;50.082;18.554;2022-11-13T01:15:04;100115.5;;;5.49;85.47
23361;BME280;11852;50.082;18.554;2022-11-13T01:16:09;100115.5;;;5.49;85.49
23361;BME280;11852;50.082;18.554;2022-11-13T01:17:13;100112.0;;;5.45;85.49
23361;BME280;11852;50.082;18.554;2022-11-13T01:18:18;100110.5;;;5.45;85.41
23361;BME280;11852;50.082;18.554;2022-11-13T01:19:22;100106.99;;;5.47;85.37
23361;BME280;11852;50.082;18.554;2022-11-13T01:20:27;100107.0;;;5.4;85.56
23361;BME280;11852;50.082;18.554;2022-11-13T01:21:31;100105.5;;;5.41;85.36
23361;BME280;11852;50.082;18.554;2022-11-13T01:22:36;100102.5;;;5.43;85.37
23361;BME280;11852;50.082;18.554;2022-11-13T01:23:41;100098.5;;;5.35;85.53
23361;BME280;11852;50.082;18.554;2022-11-13T01:24:45;100099.0;;;5.38;85.34
23361;BME280;11852;50.082;18.554;2022-11-13T01:25:49;100098.5;;;5.41;85.38
23361;BME280;11852;50.082;18.554;2022-11-13T01:26:53;100096.0;;;5.39;85.43
23361;BME280;11852;50.082;18.554;2022-11-13T01:27:58;100095.0;;;5.23;85.84
23361;BME280;11852;50.082;18.554;2022-11-13T01:29:03;100092.01;;;5.32;85.46
23361;BME280;11852;50.082;18.554;2022-11-13T01:30:07;100093.5;;;5.35;85.54
23361;BME280;11852;50.082;18.554;2022-11-13T01:31:13;100094.0;;;5.38;85.54
23361;BME280;11852;50.082;18.554;2022-11-13T01:32:16;100093.0;;;5.39;85.6
23361;BME280;11852;50.082;18.554;2022-11-13T01:33:21;100088.5;;;5.38;85.68
23361;BME280;11852;50.082;18.554;2022-11-13T01:34:26;100091.0;;;5.24;85.78
23361;BME280;11852;50.082;18.554;2022-11-13T01:35:30;100092.51;;;5.26;85.64
23361;BME280;11852;50.082;18.554;2022-11-13T01:36:35;100089.0;;;5.23;85.74
23361;BME280;11852;50.082;18.554;2022-11-13T01:37:39;100091.0;;;5.26;85.71
23361;BME280;11852;50.082;18.554;2022-11-13T01:38:44;100089.5;;;5.33;85.67
23361;BME280;11852;50.082;18.554;2022-11-13T01:39:49;100089.0;;;5.33;85.72
23361;BME280;11852;50.082;18.554;2022-11-13T01:40:53;100085.0;;;5.34;85.66
23361;BME280;11852;50.082;18.554;2022-11-13T01:41:59;100079.0;;;5.13;86.12
23361;BME280;11852;50.082;18.554;2022-11-13T01:43:50;100080.0;;;5.16;85.93
23361;BME280;11852;50.082;18.554;2022-11-13T01:44:16;100075.5;;;5.18;85.94
23361;BME280;11852;50.082;18.554;2022-11-13T01:46:37;100072.5;;;5.24;85.81
23361;BME280;11852;50.082;18.554;2022-11-13T01:47:39;100072.5;;;5.25;85.72
23361;BME280;11852;50.082;18.554;2022-11-13T01:48:50;100071.5;;;5.28;85.63
23361;BME280;11852;50.082;18.554;2022-11-13T01:49:55;100071.5;;;5.32;85.66
23361;BME280;11852;50.082;18.554;2022-11-13T01:50:58;100071.5;;;5.34;85.74
23361;BME280;11852;50.082;18.554;2022-11-13T01:52:03;100070.5;;;5.3;85.85
23361;BME280;11852;50.082;18.554;2022-11-13T01:53:07;100068.01;;;5.34;85.71
23361;BME280;11852;50.082;18.554;2022-11-13T01:54:14;100068.01;;;5.36;85.68
23361;BME280;11852;50.082;18.554;2022-11-13T01:55:16;100066.0;;;5.37;85.65
23361;BME280;11852;50.082;18.554;2022-11-13T01:56:20;100066.5;;;5.38;85.58
23361;BME280;11852;50.082;18.554;2022-11-13T01:57:25;100060.5;;;5.33;85.65
23361;BME280;11852;50.082;18.554;2022-11-13T01:58:29;100059.0;;;5.3;85.76
23361;BME280;11852;50.082;18.554;2022-11-13T01:59:40;100065.0;;;5.28;85.78
23361;BME280;11852;50.082;18.554;2022-11-13T02:00:43;100060.5;;;5.32;85.72
23361;BME280;11852;50.082;18.554;2022-11-13T02:01:48;100060.0;;;5.25;85.81
23361;BME280;11852;50.082;18.554;2022-11-13T02:02:52;100064.5;;;5.22;85.82
23361;BME280;11852;50.082;18.554;2022-11-13T02:03:56;100066.0;;;5.14;85.93
23361;BME280;11852;50.082;18.554;2022-11-13T02:05:01;100065.0;;;5.14;86.01
23361;BME280;11852;50.082;18.554;2022-11-13T02:06:06;100060.5;;;5.01;86.38
23361;BME280;11852;50.082;18.554;2022-11-13T02:07:11;100062.0;;;5.02;86.21
23361;BME280;11852;50.082;18.554;2022-11-13T02:08:14;100068.0;;;5.07;86.16
23361;BME280;11852;50.082;18.554;2022-11-13T02:09:20;100061.5;;;5.01;86.43
23361;BME280;11852;50.082;18.554;2022-11-13T02:10:23;100062.5;;;5.04;86.29
23361;BME280;11852;50.082;18.554;2022-11-13T02:11:28;100066.5;;;5.07;86.33
23361;BME280;11852;50.082;18.554;2022-11-13T02:12:33;100059.5;;;5.13;86.15
23361;BME280;11852;50.082;18.554;2022-11-13T02:13:37;100065.0;;;5.17;86.15
23361;BME280;11852;50.082;18.554;2022-11-13T02:14:46;100059.5;;;5.18;86.21
23361;BME280;11852;50.082;18.554;2022-11-13T02:15:49;100059.5;;;5.26;86.01
23361;BME280;11852;50.082;18.554;2022-11-13T02:16:55;100061.0;;;4.95;87.1
23361;BME280;11852;50.082;18.554;2022-11-13T02:17:58;100066.0;;;4.78;87.51
23361;BME280;11852;50.082;18.554;2022-11-13T02:19:05;100067.0;;;4.74;87.54
23361;BME280;11852;50.082;18.554;2022-11-13T02:20:09;100062.0;;;4.86;87.19
23361;BME280;11852;50.082;18.554;2022-11-13T02:24:47;100074.5;;;5.03;86.58
23361;BME280;11852;50.082;18.554;2022-11-13T02:25:52;100079.0;;;5.01;86.54
23361;BME280;11852;50.082;18.554;2022-11-13T02:26:57;100079.5;;;5.01;86.33
23361;BME280;11852;50.082;18.554;2022-11-13T02:28:01;100079.0;;;5.01;86.37
23361;BME280;11852;50.082;18.554;2022-11-13T02:29:05;100079.0;;;5.02;86.33
23361;BME280;11852;50.082;18.554;2022-11-13T02:30:19;100081.0;;;5.04;86.31
23361;BME280;11852;50.082;18.554;2022-11-13T02:31:16;100078.0;;;5.03;86.4
23361;BME280;11852;50.082;18.554;2022-11-13T02:32:21;100077.0;;;4.75;87.31
23361;BME280;11852;50.082;18.554;2022-11-13T02:33:30;100076.5;;;4.77;87.15
23361;BME280;11852;50.082;18.554;2022-11-13T02:34:33;100076.0;;;4.81;87.12
23361;BME280;11852;50.082;18.554;2022-11-13T02:35:38;100078.5;;;4.76;87.33
23361;BME280;11852;50.082;18.554;2022-11-13T02:36:43;100080.01;;;4.76;87.21
23361;BME280;11852;50.082;18.554;2022-11-13T02:37:47;100079.0;;;4.85;87.0
23361;BME280;11852;50.082;18.554;2022-11-13T02:38:52;100079.0;;;4.93;86.68
23361;BME280;11852;50.082;18.554;2022-11-13T02:39:56;100079.0;;;4.97;86.57
23361;BME280;11852;50.082;18.554;2022-11-13T02:41:01;100079.5;;;5.01;86.56
23361;BME280;11852;50.082;18.554;2022-11-13T02:42:05;100079.0;;;5.01;86.68
23361;BME280;11852;50.082;18.554;2022-11-13T02:43:10;100076.0;;;4.97;86.58
23361;BME280;11852;50.082;18.554;2022-11-13T02:44:15;100078.0;;;4.89;86.82
23361;BME280;11852;50.082;18.554;2022-11-13T02:45:20;100079.5;;;4.99;86.6
23361;BME280;11852;50.082;18.554;2022-11-13T02:46:24;100080.5;;;5.06;86.54
23361;BME280;11852;50.082;18.554;2022-11-13T02:47:28;100083.0;;;4.99;86.85
23361;BME280;11852;50.082;18.554;2022-11-13T02:48:32;100082.5;;;4.93;86.74
23361;BME280;11852;50.082;18.554;2022-11-13T02:49:37;100081.5;;;4.94;86.7
23361;BME280;11852;50.082;18.554;2022-11-13T02:50:42;100081.5;;;4.95;86.53
23361;BME280;11852;50.082;18.554;2022-11-13T02:51:46;100077.0;;;5.02;86.33
23361;BME280;11852;50.082;18.554;2022-11-13T02:52:51;100078.0;;;4.99;86.32
23361;BME280;11852;50.082;18.554;2022-11-13T02:53:56;100078.0;;;4.99;86.3
23361;BME280;11852;50.082;18.554;2022-11-13T02:55:00;100079.51;;;5.05;86.29
23361;BME280;11852;50.082;18.554;2022-11-13T02:56:05;100080.0;;;5.02;86.32
23361;BME280;11852;50.082;18.554;2022-11-13T02:57:09;100080.0;;;5.07;86.14
23361;BME280;11852;50.082;18.554;2022-11-13T02:58:14;100081.0;;;5.09;86.13
23361;BME280;11852;50.082;18.554;2022-11-13T02:59:18;100081.0;;;5.14;86.1
23361;BME280;11852;50.082;18.554;2022-11-13T03:00:22;100079.5;;;5.19;86.01
23361;BME280;11852;50.082;18.554;2022-11-13T03:01:27;100078.0;;;5.2;86.06
23361;BME280;11852;50.082;18.554;2022-11-13T03:02:31;100081.5;;;5.18;86.06
23361;BME280;11852;50.082;18.554;2022-11-13T03:03:36;100080.5;;;5.1;86.15
23361;BME280;11852;50.082;18.554;2022-11-13T03:04:40;100080.0;;;5.05;85.96
23361;BME280;11852;50.082;18.554;2022-11-13T03:05:48;100080.5;;;5.0;85.88
23361;BME280;11852;50.082;18.554;2022-11-13T03:06:52;100078.0;;;4.99;85.94
23361;BME280;11852;50.082;18.554;2022-11-13T03:07:56;100077.0;;;5.05;85.93
23361;BME280;11852;50.082;18.554;2022-11-13T03:09:01;100074.0;;;4.99;86.01
23361;BME280;11852;50.082;18.554;2022-11-13T03:10:06;100072.5;;;4.89;86.29
23361;BME280;11852;50.082;18.554;2022-11-13T03:11:10;100075.0;;;4.89;86.13
23361;BME280;11852;50.082;18.554;2022-11-13T03:12:14;100071.0;;;4.88;86.04
23361;BME280;11852;50.082;18.554;2022-11-13T03:13:19;100068.0;;;4.91;86.01
23361;BME280;11852;50.082;18.554;2022-11-13T03:14:23;100067.5;;;4.91;86.17
23361;BME280;11852;50.082;18.554;2022-11-13T03:15:28;100062.0;;;4.91;86.02
23361;BME280;11852;50.082;18.554;2022-11-13T03:16:33;100068.5;;;4.91;86.07
23361;BME280;11852;50.082;18.554;2022-11-13T03:17:37;100066.5;;;4.91;86.04
23361;BME280;11852;50.082;18.554;2022-11-13T03:18:41;100060.0;;;4.91;86.05
23361;BME280;11852;50.082;18.554;2022-11-13T03:19:45;100057.99;;;4.86;86.1
23361;BME280;11852;50.082;18.554;2022-11-13T03:20:49;100056.0;;;4.84;86.12
23361;BME280;11852;50.082;18.554;2022-11-13T03:21:54;100058.5;;;4.82;86.22
23361;BME280;11852;50.082;18.554;2022-11-13T03:22:58;100057.5;;;4.76;86.24
23361;BME280;11852;50.082;18.554;2022-11-13T03:24:02;100059.5;;;4.75;86.23
23361;BME280;11852;50.082;18.554;2022-11-13T03:25:07;100056.99;;;4.66;86.43
23361;BME280;11852;50.082;18.554;2022-11-13T03:26:13;100059.0;;;4.66;86.33
23361;BME280;11852;50.082;18.554;2022-11-13T03:27:16;100059.0;;;4.68;86.29
23361;BME280;11852;50.082;18.554;2022-11-13T03:28:21;100057.99;;;4.74;86.19
23361;BME280;11852;50.082;18.554;2022-11-13T03:29:25;100059.5;;;4.79;86.17
23361;BME280;11852;50.082;18.554;2022-11-13T03:30:30;100059.5;;;4.78;86.27
23361;BME280;11852;50.082;18.554;2022-11-13T03:31:34;100060.5;;;4.72;86.35
23361;BME280;11852;50.082;18.554;2022-11-13T03:32:38;100056.5;;;4.65;86.32
23361;BME280;11852;50.082;18.554;2022-11-13T03:33:43;100056.0;;;4.68;86.24
23361;BME280;11852;50.082;18.554;2022-11-13T03:34:48;100054.0;;;4.67;86.32
23361;BME280;11852;50.082;18.554;2022-11-13T03:35:52;100057.0;;;4.62;86.49
23361;BME280;11852;50.082;18.554;2022-11-13T03:36:56;100054.51;;;4.66;86.32
23361;BME280;11852;50.082;18.554;2022-11-13T03:38:01;100056.5;;;4.64;86.39
23361;BME280;11852;50.082;18.554;2022-11-13T03:39:05;100056.0;;;4.64;86.22
23361;BME280;11852;50.082;18.554;2022-11-13T03:40:10;100058.5;;;4.65;86.24
23361;BME280;11852;50.082;18.554;2022-11-13T03:41:15;100056.5;;;4.61;86.21
23361;BME280;11852;50.082;18.554;2022-11-13T03:42:19;100059.5;;;4.61;86.22
23361;BME280;11852;50.082;18.554;2022-11-13T03:43:24;100059.0;;;4.64;86.18
23361;BME280;11852;50.082;18.554;2022-11-13T03:44:28;100063.5;;;4.59;86.31
23361;BME280;11852;50.082;18.554;2022-11-13T03:45:33;100069.99;;;4.62;86.18
23361;BME280;11852;50.082;18.554;2022-11-13T03:46:37;100066.0;;;4.66;86.12
23361;BME280;11852;50.082;18.554;2022-11-13T03:47:42;100069.0;;;4.6;86.28
23361;BME280;11852;50.082;18.554;2022-11-13T03:48:47;100068.0;;;4.64;86.19
23361;BME280;11852;50.082;18.554;2022-11-13T03:49:51;100068.0;;;4.63;86.24
23361;BME280;11852;50.082;18.554;2022-11-13T03:50:56;100069.5;;;4.54;86.43
23361;BME280;11852;50.082;18.554;2022-11-13T03:52:00;100069.5;;;4.41;86.68
23361;BME280;11852;50.082;18.554;2022-11-13T03:53:04;100062.5;;;4.45;86.32
23361;BME280;11852;50.082;18.554;2022-11-13T03:54:09;100059.5;;;4.43;86.49
23361;BME280;11852;50.082;18.554;2022-11-13T03:55:13;100056.0;;;4.36;86.6
23361;BME280;11852;50.082;18.554;2022-11-13T03:56:18;100056.5;;;4.38;86.44
23361;BME280;11852;50.082;18.554;2022-11-13T03:57:22;100055.51;;;4.43;86.3
23361;BME280;11852;50.082;18.554;2022-11-13T03:58:26;100059.0;;;4.45;86.36
23361;BME280;11852;50.082;18.554;2022-11-13T03:59:31;100060.0;;;4.44;86.46
23361;BME280;11852;50.082;18.554;2022-11-13T04:00:36;100059.0;;;4.31;86.68
23361;BME280;11852;50.082;18.554;2022-11-13T04:01:40;100061.0;;;4.21;86.79
23361;BME280;11852;50.082;18.554;2022-11-13T04:02:44;100059.0;;;4.21;86.78
23361;BME280;11852;50.082;18.554;2022-11-13T04:03:49;100057.49;;;4.26;86.69
23361;BME280;11852;50.082;18.554;2022-11-13T04:04:54;100057.99;;;4.32;86.6
23361;BME280;11852;50.082;18.554;2022-11-13T04:05:58;100059.5;;;4.37;86.51
23361;BME280;11852;50.082;18.554;2022-11-13T04:07:03;100059.5;;;4.41;86.6
23361;BME280;11852;50.082;18.554;2022-11-13T04:08:07;100058.5;;;4.39;86.63
23361;BME280;11852;50.082;18.554;2022-11-13T04:09:12;100054.51;;;4.41;86.6
23361;BME280;11852;50.082;18.554;2022-11-13T04:10:17;100060.0;;;4.47;86.46
23361;BME280;11852;50.082;18.554;2022-11-13T04:11:22;100059.5;;;4.47;86.42
23361;BME280;11852;50.082;18.554;2022-11-13T04:12:26;100056.0;;;4.5;86.37
23361;BME280;11852;50.082;18.554;2022-11-13T04:13:31;100059.0;;;4.49;86.4
23361;BME280;11852;50.082;18.554;2022-11-13T04:14:35;100056.0;;;4.55;86.21
23361;BME280;11852;50.082;18.554;2022-11-13T04:15:40;100057.99;;;4.53;86.37
23361;BME280;11852;50.082;18.554;2022-11-13T04:16:44;100060.0;;;4.57;86.26
23361;BME280;11852;50.082;18.554;2022-11-13T04:17:49;100056.0;;;4.49;86.17
23361;BME280;11852;50.082;18.554;2022-11-13T04:18:54;100057.49;;;4.48;86.22
23361;BME280;11852;50.082;18.554;2022-11-13T04:19:58;100056.5;;;4.49;86.12
23361;BME280;11852;50.082;18.554;2022-11-13T04:21:03;100055.5;;;4.32;86.53
23361;BME280;11852;50.082;18.554;2022-11-13T04:22:07;100053.0;;;4.39;86.23
23361;BME280;11852;50.082;18.554;2022-11-13T04:23:12;100053.5;;;4.32;86.45
23361;BME280;11852;50.082;18.554;2022-11-13T04:24:17;100052.5;;;4.31;86.49
23361;BME280;11852;50.082;18.554;2022-11-13T04:25:21;100057.5;;;4.24;86.63
23361;BME280;11852;50.082;18.554;2022-11-13T04:26:25;100056.0;;;4.3;86.46
23361;BME280;11852;50.082;18.554;2022-11-13T04:27:30;100057.99;;;4.33;86.53
23361;BME280;11852;50.082;18.554;2022-11-13T04:28:34;100068.5;;;4.41;86.4
23361;BME280;11852;50.082;18.554;2022-11-13T04:29:39;100070.5;;;4.47;86.41
23361;BME280;11852;50.082;18.554;2022-11-13T04:30:43;100069.5;;;4.34;86.76
23361;BME280;11852;50.082;18.554;2022-11-13T04:31:48;100071.5;;;4.37;86.41
23361;BME280;11852;50.082;18.554;2022-11-13T04:32:52;100069.5;;;4.36;86.32
23361;BME280;11852;50.082;18.554;2022-11-13T04:33:57;100067.5;;;4.37;86.35
23361;BME280;11852;50.082;18.554;2022-11-13T04:35:02;100062.5;;;4.34;86.56
23361;BME280;11852;50.082;18.554;2022-11-13T04:36:06;100062.0;;;4.24;86.54
23361;BME280;11852;50.082;18.554;2022-11-13T04:37:10;100069.5;;;4.31;86.32
23361;BME280;11852;50.082;18.554;2022-11-13T04:38:15;100063.0;;;4.23;86.57
23361;BME280;11852;50.082;18.554;2022-11-13T04:39:19;100068.0;;;4.21;86.46
23361;BME280;11852;50.082;18.554;2022-11-13T04:40:23;100066.0;;;4.19;86.5
23361;BME280;11852;50.082;18.554;2022-11-13T04:41:33;100067.5;;;4.13;86.69
23361;BME280;11852;50.082;18.554;2022-11-13T04:42:43;100067.5;;;4.19;86.43
23361;BME280;11852;50.082;18.554;2022-11-13T04:43:47;100069.0;;;4.2;86.53
23361;BME280;11852;50.082;18.554;2022-11-13T04:44:52;100067.0;;;4.24;86.46
23361;BME280;11852;50.082;18.554;2022-11-13T04:45:56;100070.0;;;4.26;86.38
23361;BME280;11852;50.082;18.554;2022-11-13T04:47:01;100068.5;;;4.3;86.38
23361;BME280;11852;50.082;18.554;2022-11-13T04:48:06;100069.0;;;4.34;86.35
23361;BME280;11852;50.082;18.554;2022-11-13T04:49:10;100066.5;;;4.36;86.38
23361;BME280;11852;50.082;18.554;2022-11-13T04:50:14;100067.5;;;4.36;86.38
23361;BME280;11852;50.082;18.554;2022-11-13T04:51:19;100067.01;;;4.43;86.31
23361;BME280;11852;50.082;18.554;2022-11-13T04:52:23;100062.0;;;4.47;86.33
23361;BME280;11852;50.082;18.554;2022-11-13T04:53:28;100059.5;;;4.45;86.31
23361;BME280;11852;50.082;18.554;2022-11-13T04:54:32;100058.5;;;4.34;86.22
23361;BME280;11852;50.082;18.554;2022-11-13T04:55:37;100060.0;;;4.33;86.23
23361;BME280;11852;50.082;18.554;2022-11-13T04:56:42;100060.0;;;4.32;86.35
23361;BME280;11852;50.082;18.554;2022-11-13T04:57:46;100067.5;;;4.35;86.21
23361;BME280;11852;50.082;18.554;2022-11-13T04:58:51;100066.0;;;4.28;86.27
23361;BME280;11852;50.082;18.554;2022-11-13T04:59:55;100062.0;;;4.27;86.31
23361;BME280;11852;50.082;18.554;2022-11-13T05:01:00;100063.5;;;4.26;86.29
23361;BME280;11852;50.082;18.554;2022-11-13T05:02:04;100068.0;;;4.22;86.33
23361;BME280;11852;50.082;18.554;2022-11-13T05:03:09;100060.0;;;4.19;86.43
23361;BME280;11852;50.082;18.554;2022-11-13T05:04:13;100061.0;;;4.27;86.34
23361;BME280;11852;50.082;18.554;2022-11-13T05:05:18;100060.5;;;4.19;86.7
23361;BME280;11852;50.082;18.554;2022-11-13T05:06:22;100059.0;;;4.08;86.82
23361;BME280;11852;50.082;18.554;2022-11-13T05:07:27;100058.5;;;4.05;86.85
23361;BME280;11852;50.082;18.554;2022-11-13T05:08:32;100058.5;;;4.1;86.73
23361;BME280;11852;50.082;18.554;2022-11-13T05:09:36;100059.5;;;4.05;87.0
23361;BME280;11852;50.082;18.554;2022-11-13T05:10:40;100062.0;;;4.18;86.78
23361;BME280;11852;50.082;18.554;2022-11-13T05:11:45;100065.0;;;4.16;86.87
23361;BME280;11852;50.082;18.554;2022-11-13T05:12:49;100063.5;;;4.2;86.63
23361;BME280;11852;50.082;18.554;2022-11-13T05:13:54;100062.5;;;4.2;86.68
23361;BME280;11852;50.082;18.554;2022-11-13T05:14:58;100069.0;;;4.11;86.97
23361;BME280;11852;50.082;18.554;2022-11-13T05:16:07;100062.0;;;4.2;86.65
23361;BME280;11852;50.082;18.554;2022-11-13T05:17:10;100065.0;;;4.26;86.63
23361;BME280;11852;50.082;18.554;2022-11-13T05:18:15;100060.5;;;4.26;86.63
23361;BME280;11852;50.082;18.554;2022-11-13T05:19:19;100061.0;;;4.18;86.71
23361;BME280;11852;50.082;18.554;2022-11-13T05:20:24;100058.5;;;4.24;86.49
23361;BME280;11852;50.082;18.554;2022-11-13T05:21:28;100064.0;;;4.32;86.4
23361;BME280;11852;50.082;18.554;2022-11-13T05:22:33;100060.5;;;4.32;86.44
23361;BME280;11852;50.082;18.554;2022-11-13T05:23:38;100065.5;;;4.35;86.42
23361;BME280;11852;50.082;18.554;2022-11-13T05:24:42;100061.0;;;4.38;86.33
23361;BME280;11852;50.082;18.554;2022-11-13T05:25:47;100059.0;;;4.41;86.31
23361;BME280;11852;50.082;18.554;2022-11-13T05:26:51;100059.5;;;4.43;86.28
23361;BME280;11852;50.082;18.554;2022-11-13T05:27:56;100061.5;;;4.44;86.33
23361;BME280;11852;50.082;18.554;2022-11-13T05:29:00;100058.0;;;4.47;86.26
23361;BME280;11852;50.082;18.554;2022-11-13T05:30:05;100060.0;;;4.45;86.39
23361;BME280;11852;50.082;18.554;2022-11-13T05:31:11;100061.0;;;4.44;86.34
23361;BME280;11852;50.082;18.554;2022-11-13T05:32:14;100061.5;;;4.49;86.22
23361;BME280;11852;50.082;18.554;2022-11-13T05:33:19;100061.0;;;4.54;86.28
23361;BME280;11852;50.082;18.554;2022-11-13T05:34:23;100061.5;;;4.51;86.38
23361;BME280;11852;50.082;18.554;2022-11-13T05:35:28;100066.0;;;4.46;86.47
23361;BME280;11852;50.082;18.554;2022-11-13T05:36:33;100059.5;;;4.44;86.43
23361;BME280;11852;50.082;18.554;2022-11-13T05:37:37;100056.0;;;4.55;86.28
23361;BME280;11852;50.082;18.554;2022-11-13T05:38:41;100056.0;;;4.51;86.43
23361;BME280;11852;50.082;18.554;2022-11-13T05:39:46;100055.51;;;4.55;86.32
23361;BME280;11852;50.082;18.554;2022-11-13T05:40:50;100056.0;;;4.56;86.33
23361;BME280;11852;50.082;18.554;2022-11-13T05:41:55;100059.0;;;4.54;86.39
23361;BME280;11852;50.082;18.554;2022-11-13T05:42:59;100059.0;;;4.56;86.38
23361;BME280;11852;50.082;18.554;2022-11-13T05:44:04;100057.99;;;4.54;86.42
23361;BME280;11852;50.082;18.554;2022-11-13T05:45:09;100056.5;;;4.51;86.57
23361;BME280;11852;50.082;18.554;2022-11-13T05:46:16;100057.99;;;4.55;86.47
23361;BME280;11852;50.082;18.554;2022-11-13T05:47:20;100059.0;;;4.45;86.79
23361;BME280;11852;50.082;18.554;2022-11-13T05:48:25;100061.0;;;4.44;86.78
23361;BME280;11852;50.082;18.554;2022-11-13T05:49:30;100058.5;;;4.45;86.72